createdAt,value
2017-05-09T00:00:15.864Z,99.99
2017-05-09T00:00:56.284Z,99.99
2017-05-09T00:01:36.703Z,99.99
2017-05-09T00:02:17.104Z,99.99
2017-05-09T00:02:57.494Z,99.99
2017-05-09T00:03:37.934Z,99.99
2017-05-09T00:04:18.353Z,99.99
2017-05-09T00:04:58.774Z,99.99
2017-05-09T00:05:39.194Z,99.99
2017-05-09T00:06:19.617Z,99.99
2017-05-09T00:07:00.073Z,99.99
2017-05-09T00:07:40.487Z,99.99
2017-05-09T00:08:20.945Z,99.99
2017-05-09T00:09:01.423Z,99.99
2017-05-09T00:09:41.804Z,99.99
2017-05-09T00:10:22.249Z,99.99
2017-05-09T00:11:02.603Z,99.99
2017-05-09T00:11:43.028Z,99.99
2017-05-09T00:12:23.483Z,99.99
2017-05-09T00:13:03.911Z,99.99
2017-05-09T00:13:44.317Z,99.99
2017-05-09T00:14:24.715Z,99.99
2017-05-09T00:15:05.129Z,99.99
2017-05-09T00:15:45.532Z,99.99
2017-05-09T00:16:25.923Z,99.99
2017-05-09T00:17:06.356Z,99.99
2017-05-09T00:17:46.757Z,99.99
2017-05-09T00:18:27.159Z,99.99
2017-05-09T00:19:07.586Z,99.99
2017-05-09T00:19:47.995Z,99.99
2017-05-09T00:20:28.425Z,99.99
2017-05-09T00:21:08.865Z,99.99
2017-05-09T00:21:49.303Z,99.99
2017-05-09T00:22:29.692Z,99.99
2017-05-09T00:23:10.083Z,99.99
2017-05-09T00:23:50.487Z,99.99
2017-05-09T00:24:30.919Z,99.99
2017-05-09T00:25:11.364Z,99.99
2017-05-09T00:25:51.770Z,99.99
2017-05-09T00:26:32.171Z,99.99
2017-05-09T00:27:12.555Z,99.99
2017-05-09T00:27:52.970Z,99.99
2017-05-09T00:28:33.402Z,99.99
2017-05-09T00:29:13.844Z,99.99
2017-05-09T00:29:54.253Z,99.99
2017-05-09T00:30:34.638Z,99.99
2017-05-09T00:31:15.074Z,99.99
2017-05-09T00:31:55.489Z,99.99
2017-05-09T00:32:35.923Z,99.99
2017-05-09T00:33:16.332Z,99.99
2017-05-09T00:33:56.739Z,99.99
2017-05-09T00:36:16.294Z,99.99
2017-05-09T00:36:56.726Z,99.99
2017-05-09T00:37:37.165Z,99.99
2017-05-09T00:38:17.584Z,99.99
2017-05-09T00:38:57.993Z,99.99
2017-05-09T00:39:38.417Z,99.99
2017-05-09T00:40:18.851Z,99.99
2017-05-09T00:40:59.294Z,99.99
2017-05-09T00:41:39.718Z,99.99
2017-05-09T00:42:20.112Z,99.99
2017-05-09T00:43:00.532Z,99.99
2017-05-09T00:43:40.916Z,99.99
2017-05-09T00:44:21.345Z,99.99
2017-05-09T00:45:01.810Z,99.99
2017-05-09T00:45:42.227Z,99.99
2017-05-09T00:46:22.648Z,99.99
2017-05-09T00:47:03.078Z,99.99
2017-05-09T00:47:43.490Z,99.99
2017-05-09T00:48:23.881Z,99.99
2017-05-09T00:49:04.304Z,99.99
2017-05-09T00:49:44.707Z,99.99
2017-05-09T00:50:25.135Z,99.99
2017-05-09T00:51:05.531Z,99.99
2017-05-09T00:51:45.939Z,99.99
2017-05-09T00:52:26.354Z,99.99
2017-05-09T00:53:06.791Z,99.99
2017-05-09T00:53:47.219Z,99.99
2017-05-09T00:54:27.660Z,99.99
2017-05-09T00:55:08.096Z,99.99
2017-05-09T00:55:48.495Z,99.99
2017-05-09T00:56:28.921Z,99.99
2017-05-09T00:57:09.367Z,99.99
2017-05-09T00:57:49.823Z,99.99
2017-05-09T00:58:30.226Z,99.99
2017-05-09T00:59:10.640Z,99.99
2017-05-09T00:59:51.087Z,99.99
2017-05-09T01:00:31.478Z,99.99
2017-05-09T01:01:11.898Z,99.99
2017-05-09T01:03:24.776Z,99.99
2017-05-09T01:04:05.203Z,99.99
2017-05-09T01:04:45.632Z,99.99
2017-05-09T01:05:26.045Z,99.99
2017-05-09T01:06:06.457Z,99.99
2017-05-09T01:06:46.886Z,99.99
2017-05-09T01:07:27.294Z,99.99
2017-05-09T01:08:07.707Z,99.99
2017-05-09T01:08:48.149Z,99.99
2017-05-09T01:09:28.539Z,99.99
2017-05-09T01:10:08.966Z,99.99
2017-05-09T01:10:49.437Z,99.99
2017-05-09T01:13:07.533Z,99.99
2017-05-09T01:13:47.929Z,99.99
2017-05-09T01:14:28.328Z,99.99
2017-05-09T01:15:08.765Z,99.99
2017-05-09T01:15:49.154Z,99.99
2017-05-09T01:16:29.569Z,99.99
2017-05-09T01:17:09.998Z,99.99
2017-05-09T01:18:57.728Z,99.99
2017-05-09T01:19:38.118Z,99.99
2017-05-09T01:20:18.555Z,99.99
2017-05-09T01:20:58.990Z,99.99
2017-05-09T01:21:39.398Z,99.99
2017-05-09T01:22:19.837Z,99.99
2017-05-09T01:23:00.221Z,99.99
2017-05-09T01:23:40.682Z,99.99
2017-05-09T01:24:21.103Z,99.99
2017-05-09T01:25:01.488Z,99.99
2017-05-09T01:25:41.917Z,99.99
2017-05-09T01:26:22.349Z,99.99
2017-05-09T01:27:02.790Z,99.99
2017-05-09T01:27:43.150Z,99.99
2017-05-09T01:28:23.601Z,99.99
2017-05-09T01:29:04.032Z,99.99
2017-05-09T01:29:44.456Z,99.99
2017-05-09T01:30:24.878Z,99.99
2017-05-09T01:31:05.282Z,99.99
2017-05-09T01:31:45.686Z,99.99
2017-05-09T01:32:26.068Z,99.99
2017-05-09T01:33:06.494Z,99.99
2017-05-09T01:33:46.909Z,99.99
2017-05-09T01:34:27.328Z,99.99
2017-05-09T01:35:07.725Z,99.99
2017-05-09T01:35:48.152Z,99.99
2017-05-09T01:36:28.541Z,99.99
2017-05-09T01:37:08.955Z,99.99
2017-05-09T01:37:49.399Z,99.99
2017-05-09T01:38:29.843Z,99.99
2017-05-09T01:39:10.265Z,99.99
2017-05-09T01:39:50.703Z,99.99
2017-05-09T01:40:31.080Z,99.99
2017-05-09T01:41:11.470Z,99.99
2017-05-09T01:41:51.885Z,99.99
2017-05-09T01:42:32.289Z,99.99
2017-05-09T01:43:12.684Z,99.99
2017-05-09T01:43:53.080Z,99.99
2017-05-09T01:44:33.469Z,99.99
2017-05-09T01:45:13.922Z,99.99
2017-05-09T01:45:54.335Z,99.99
2017-05-09T01:46:34.780Z,99.99
2017-05-09T01:47:15.151Z,99.99
2017-05-09T01:47:55.544Z,99.99
2017-05-09T01:48:35.938Z,99.99
2017-05-09T01:49:16.337Z,99.99
2017-05-09T01:49:56.750Z,99.99
2017-05-09T01:50:37.196Z,99.99
2017-05-09T01:51:17.597Z,99.99
2017-05-09T01:51:58.001Z,99.99
2017-05-09T01:52:38.441Z,99.99
2017-05-09T01:54:56.427Z,99.99
2017-05-09T01:55:36.839Z,99.99
2017-05-09T01:56:17.273Z,99.99
2017-05-09T01:56:57.676Z,99.99
2017-05-09T01:57:38.082Z,99.99
2017-05-09T01:58:18.490Z,99.99
2017-05-09T01:58:58.952Z,99.99
2017-05-09T01:59:39.348Z,99.99
2017-05-09T02:00:19.752Z,99.99
2017-05-09T02:01:00.135Z,99.99
2017-05-09T02:01:40.525Z,99.99
2017-05-09T02:02:20.940Z,99.99
2017-05-09T02:03:01.352Z,99.99
2017-05-09T02:05:19.432Z,99.99
2017-05-09T02:05:59.851Z,99.99
2017-05-09T02:06:40.284Z,99.99
2017-05-09T02:07:20.715Z,99.99
2017-05-09T02:08:01.114Z,99.99
2017-05-09T02:08:41.650Z,99.99
2017-05-09T02:09:21.990Z,99.99
2017-05-09T02:10:02.475Z,99.99
2017-05-09T02:10:42.856Z,99.99
2017-05-09T02:11:23.290Z,99.99
2017-05-09T02:12:03.714Z,99.99
2017-05-09T02:12:44.088Z,99.99
2017-05-09T02:13:24.510Z,99.99
2017-05-09T02:14:04.915Z,99.99
2017-05-09T02:14:45.347Z,99.99
2017-05-09T02:15:25.741Z,99.99
2017-05-09T02:16:06.164Z,99.99
2017-05-09T02:16:46.602Z,99.99
2017-05-09T02:18:39.995Z,99.99
2017-05-09T02:19:20.420Z,99.99
2017-05-09T02:20:00.849Z,99.99
2017-05-09T02:20:41.261Z,99.99
2017-05-09T02:21:21.708Z,99.99
2017-05-09T02:22:02.124Z,99.99
2017-05-09T02:22:42.617Z,99.99
2017-05-09T02:23:23.003Z,99.99
2017-05-09T02:24:03.425Z,99.99
2017-05-09T02:24:43.825Z,99.99
2017-05-09T02:25:24.247Z,99.99
2017-05-09T02:26:04.663Z,99.99
2017-05-09T02:26:45.066Z,99.99
2017-05-09T02:27:25.480Z,99.99
2017-05-09T02:28:05.889Z,99.99
2017-05-09T02:28:46.320Z,99.99
2017-05-09T02:29:26.790Z,99.99
2017-05-09T02:30:07.182Z,99.99
2017-05-09T02:30:47.566Z,99.99
2017-05-09T02:31:27.994Z,99.99
2017-05-09T02:32:08.470Z,99.99
2017-05-09T02:32:48.921Z,99.99
2017-05-09T02:33:29.310Z,99.99
2017-05-09T02:35:22.086Z,99.99
2017-05-09T02:36:02.473Z,99.99
2017-05-09T02:36:42.906Z,99.99
2017-05-09T02:37:23.325Z,99.99
2017-05-09T02:38:03.779Z,99.99
2017-05-09T02:38:44.158Z,99.99
2017-05-09T02:39:24.582Z,99.99
2017-05-09T02:40:04.987Z,99.99
2017-05-09T02:40:45.404Z,99.99
2017-05-09T02:41:25.813Z,99.99
2017-05-09T02:42:06.214Z,99.99
2017-05-09T02:42:46.673Z,99.99
2017-05-09T02:43:27.082Z,99.99
2017-05-09T02:44:07.496Z,99.99
2017-05-09T02:44:47.940Z,99.99
2017-05-09T02:45:28.347Z,99.99
2017-05-09T02:46:08.737Z,99.99
2017-05-09T02:46:49.166Z,99.99
2017-05-09T02:47:29.573Z,99.99
2017-05-09T02:48:09.982Z,99.99
2017-05-09T02:48:50.369Z,99.99
2017-05-09T02:49:30.807Z,99.99
2017-05-09T02:50:11.219Z,99.99
2017-05-09T02:50:51.637Z,99.99
2017-05-09T02:51:32.032Z,99.99
2017-05-09T02:52:12.472Z,99.99
2017-05-09T02:52:52.876Z,99.99
2017-05-09T02:53:33.269Z,99.99
2017-05-09T02:54:13.685Z,99.99
2017-05-09T02:54:54.102Z,99.99
2017-05-09T02:55:34.549Z,99.99
2017-05-09T02:57:27.340Z,99.99
2017-05-09T02:58:07.765Z,99.99
2017-05-09T02:58:48.201Z,99.99
2017-05-09T02:59:28.638Z,99.99
2017-05-09T03:00:09.077Z,99.99
2017-05-09T03:02:27.166Z,99.99
2017-05-09T03:03:07.601Z,99.99
2017-05-09T03:03:48.048Z,99.99
2017-05-09T03:04:28.460Z,99.99
2017-05-09T03:05:08.879Z,99.99
2017-05-09T03:05:49.260Z,99.99
2017-05-09T03:06:29.685Z,99.99
2017-05-09T03:07:10.153Z,99.99
2017-05-09T03:07:50.565Z,99.99
2017-05-09T03:08:30.981Z,99.99
2017-05-09T03:09:11.425Z,99.99
2017-05-09T03:09:51.797Z,99.99
2017-05-09T03:10:32.220Z,99.99
2017-05-09T03:11:12.669Z,99.99
2017-05-09T03:11:53.045Z,99.99
2017-05-09T03:12:33.473Z,99.99
2017-05-09T03:14:26.325Z,99.99
2017-05-09T03:15:06.739Z,99.99
2017-05-09T03:15:47.193Z,99.99
2017-05-09T03:18:00.118Z,99.99
2017-05-09T03:18:40.532Z,99.99
2017-05-09T03:19:20.972Z,99.99
2017-05-09T03:20:01.415Z,99.99
2017-05-09T03:20:41.843Z,99.99
2017-05-09T03:21:22.268Z,99.99
2017-05-09T03:22:02.703Z,99.99
2017-05-09T03:22:43.100Z,99.99
2017-05-09T03:23:23.486Z,99.99
2017-05-09T03:24:03.923Z,99.99
2017-05-09T03:24:44.358Z,99.99
2017-05-09T03:25:24.790Z,99.99
2017-05-09T03:26:05.167Z,99.99
2017-05-09T03:26:45.604Z,99.99
2017-05-09T03:27:26.059Z,99.99
2017-05-09T03:28:06.477Z,99.99
2017-05-09T03:28:46.894Z,99.99
2017-05-09T03:29:27.319Z,99.99
2017-05-09T03:30:07.721Z,99.99
2017-05-09T03:30:48.111Z,99.99
2017-05-09T03:31:28.515Z,99.99
2017-05-09T03:32:08.934Z,99.99
2017-05-09T03:32:49.336Z,99.99
2017-05-09T03:33:29.708Z,99.99
2017-05-09T03:34:10.168Z,99.99
2017-05-09T03:34:50.538Z,99.99
2017-05-09T03:35:30.956Z,99.99
2017-05-09T03:36:11.337Z,99.99
2017-05-09T03:36:51.799Z,99.99
2017-05-09T03:37:32.181Z,99.99
2017-05-09T03:38:12.600Z,99.99
2017-05-09T03:38:53.033Z,99.99
2017-05-09T03:39:33.459Z,99.99
2017-05-09T03:40:13.852Z,99.99
2017-05-09T03:40:54.267Z,99.99
2017-05-09T03:41:34.669Z,99.99
2017-05-09T03:42:15.135Z,99.99
2017-05-09T03:44:28.045Z,99.99
2017-05-09T03:45:08.467Z,99.99
2017-05-09T03:45:48.891Z,99.99
2017-05-09T03:47:46.807Z,99.99
2017-05-09T03:48:27.229Z,99.99
2017-05-09T03:49:07.696Z,99.99
2017-05-09T03:49:48.065Z,99.99
2017-05-09T03:50:28.503Z,99.99
2017-05-09T03:51:08.914Z,99.99
2017-05-09T03:51:49.304Z,99.99
2017-05-09T03:52:29.746Z,99.99
2017-05-09T03:53:10.658Z,99.99
2017-05-09T03:53:51.104Z,99.99
2017-05-09T03:54:31.487Z,99.99
2017-05-09T03:55:11.942Z,99.99
2017-05-09T03:55:52.329Z,99.99
2017-05-09T03:56:32.780Z,99.99
2017-05-09T03:57:13.147Z,99.99
2017-05-09T03:57:53.583Z,99.99
2017-05-09T03:58:34.016Z,99.99
2017-05-09T03:59:14.436Z,99.99
2017-05-09T03:59:54.833Z,99.99
2017-05-09T04:00:35.286Z,99.99
2017-05-09T04:01:15.774Z,99.99
2017-05-09T04:01:56.204Z,99.99
2017-05-09T04:04:09.253Z,99.99
2017-05-09T04:04:49.677Z,99.99
2017-05-09T04:05:30.105Z,99.99
2017-05-09T04:07:22.762Z,99.99
2017-05-09T04:08:03.174Z,99.99
2017-05-09T04:08:43.579Z,99.99
2017-05-09T04:09:23.967Z,99.99
2017-05-09T04:10:04.427Z,99.99
2017-05-09T04:10:44.847Z,99.99
2017-05-09T04:11:25.232Z,99.99
2017-05-09T04:12:05.646Z,99.99
2017-05-09T04:12:46.088Z,99.99
2017-05-09T04:13:26.464Z,99.99
2017-05-09T04:15:24.468Z,99.99
2017-05-09T04:16:04.889Z,99.99
2017-05-09T04:16:45.308Z,99.99
2017-05-09T04:17:25.752Z,99.99
2017-05-09T04:18:06.159Z,99.99
2017-05-09T04:18:46.570Z,99.99
2017-05-09T04:19:27.000Z,99.99
2017-05-09T04:20:07.416Z,99.99
2017-05-09T04:20:47.894Z,99.99
2017-05-09T04:22:35.483Z,99.99
2017-05-09T04:23:15.917Z,99.99
2017-05-09T04:23:56.344Z,99.99
2017-05-09T04:24:36.765Z,99.99
2017-05-09T04:25:17.204Z,99.99
2017-05-09T04:25:57.601Z,99.99
2017-05-09T04:26:38.008Z,99.99
2017-05-09T04:27:18.414Z,99.99
2017-05-09T04:27:58.825Z,99.99
2017-05-09T04:28:39.213Z,99.99
2017-05-09T04:29:19.644Z,99.99
2017-05-09T04:30:00.097Z,99.99
2017-05-09T04:30:40.475Z,99.99
2017-05-09T04:31:20.902Z,99.99
2017-05-09T04:32:01.335Z,99.99
2017-05-09T04:32:41.749Z,99.99
2017-05-09T04:33:22.173Z,99.99
2017-05-09T04:34:02.584Z,99.99
2017-05-09T04:34:42.989Z,99.99
2017-05-09T04:35:23.442Z,99.99
2017-05-09T04:36:03.912Z,99.99
2017-05-09T04:36:44.318Z,99.99
2017-05-09T04:37:24.713Z,99.99
2017-05-09T04:38:05.145Z,99.99
2017-05-09T04:38:45.571Z,99.99
2017-05-09T04:39:26.048Z,99.99
2017-05-09T04:40:06.372Z,99.99
2017-05-09T04:40:46.778Z,99.99
2017-05-09T04:41:27.249Z,99.99
2017-05-09T04:42:07.673Z,99.99
2017-05-09T04:42:48.128Z,99.99
2017-05-09T04:43:28.513Z,99.99
2017-05-09T04:44:08.946Z,99.99
2017-05-09T04:44:49.383Z,99.99
2017-05-09T04:46:47.299Z,99.99
2017-05-09T04:47:27.701Z,99.99
2017-05-09T04:48:08.112Z,99.99
2017-05-09T04:48:48.580Z,99.99
2017-05-09T04:49:28.991Z,99.99
2017-05-09T04:50:09.392Z,99.99
2017-05-09T04:50:49.822Z,99.99
2017-05-09T04:51:30.233Z,99.99
2017-05-09T04:53:28.224Z,99.99
2017-05-09T04:54:08.621Z,99.99
2017-05-09T04:54:49.040Z,99.99
2017-05-09T04:55:29.460Z,99.99
2017-05-09T04:56:09.893Z,99.99
2017-05-09T04:56:50.291Z,99.99
2017-05-09T04:57:30.732Z,99.99
2017-05-09T04:58:11.142Z,99.99
2017-05-09T04:58:51.549Z,99.99
2017-05-09T04:59:31.978Z,99.99
2017-05-09T05:00:12.376Z,99.99
2017-05-09T05:00:52.831Z,99.99
2017-05-09T05:01:33.241Z,99.99
2017-05-09T05:02:13.675Z,99.99
2017-05-09T05:02:54.101Z,99.99
2017-05-09T05:03:34.489Z,99.99
2017-05-09T05:04:14.908Z,99.99
2017-05-09T05:04:55.332Z,99.99
2017-05-09T05:05:35.728Z,99.99
2017-05-09T05:06:16.136Z,99.99
2017-05-09T05:06:56.561Z,99.99
2017-05-09T05:07:36.961Z,99.99
2017-05-09T05:08:17.398Z,99.99
2017-05-09T05:08:57.790Z,99.99
2017-05-09T05:09:38.169Z,99.99
2017-05-09T05:10:18.589Z,99.99
2017-05-09T05:10:58.987Z,99.99
2017-05-09T05:11:39.407Z,99.99
2017-05-09T05:12:19.830Z,99.99
2017-05-09T05:13:00.228Z,99.99
2017-05-09T05:13:40.645Z,99.99
2017-05-09T05:14:21.042Z,99.99
2017-05-09T05:15:01.461Z,99.99
2017-05-09T05:15:41.880Z,99.99
2017-05-09T05:16:22.277Z,99.99
2017-05-09T05:17:02.720Z,99.99
2017-05-09T05:17:43.168Z,99.99
2017-05-09T05:18:23.666Z,99.99
2017-05-09T05:19:05.738Z,99.99
2017-05-09T05:19:46.170Z,99.99
2017-05-09T05:20:26.599Z,99.99
2017-05-09T05:22:42.606Z,99.99
2017-05-09T05:23:23.032Z,99.99
2017-05-09T05:24:03.452Z,99.99
2017-05-09T05:24:43.889Z,99.99
2017-05-09T05:25:24.331Z,99.99
2017-05-09T05:26:04.729Z,99.99
2017-05-09T05:26:45.144Z,99.99
2017-05-09T05:27:25.541Z,99.99
2017-05-09T05:28:05.952Z,99.99
2017-05-09T05:28:46.369Z,99.99
2017-05-09T05:29:26.782Z,99.99
2017-05-09T05:30:07.175Z,99.99
2017-05-09T05:30:47.633Z,99.99
2017-05-09T05:31:28.078Z,99.99
2017-05-09T05:32:08.483Z,99.99
2017-05-09T05:34:24.243Z,99.99
2017-05-09T05:35:04.685Z,99.99
2017-05-09T05:35:45.126Z,99.99
2017-05-09T05:36:25.581Z,99.99
2017-05-09T05:37:06.013Z,99.99
2017-05-09T05:37:47.349Z,99.99
2017-05-09T05:38:27.817Z,99.99
2017-05-09T05:39:08.231Z,99.99
2017-05-09T05:39:48.649Z,99.99
2017-05-09T05:40:29.069Z,99.99
2017-05-09T05:41:09.482Z,99.99
2017-05-09T05:41:49.896Z,99.99
2017-05-09T05:42:30.349Z,99.99
2017-05-09T05:43:10.779Z,99.99
2017-05-09T05:43:51.174Z,99.99
2017-05-09T05:44:31.588Z,99.99
2017-05-09T05:45:12.035Z,99.99
2017-05-09T05:45:52.428Z,99.99
2017-05-09T05:46:32.822Z,99.99
2017-05-09T05:47:13.244Z,99.99
2017-05-09T05:47:53.684Z,99.99
2017-05-09T05:48:34.140Z,99.99
2017-05-09T05:49:14.574Z,99.99
2017-05-09T05:49:55.021Z,99.99
2017-05-09T05:50:35.416Z,99.99
2017-05-09T05:51:15.811Z,99.99
2017-05-09T05:51:56.262Z,99.99
2017-05-09T05:52:36.649Z,99.99
2017-05-09T05:53:17.108Z,99.99
2017-05-09T05:53:57.456Z,99.99
2017-05-09T05:54:37.858Z,99.99
2017-05-09T05:55:18.263Z,99.99
2017-05-09T05:55:58.649Z,99.99
2017-05-09T05:56:39.098Z,99.99
2017-05-09T05:57:19.492Z,99.99
2017-05-09T05:57:59.952Z,99.99
2017-05-09T05:58:40.349Z,99.99
2017-05-09T05:59:20.767Z,99.99
2017-05-09T06:00:01.190Z,99.99
2017-05-09T06:00:41.580Z,99.99
2017-05-09T06:01:21.990Z,99.99
2017-05-09T06:02:02.386Z,99.99
2017-05-09T06:02:42.786Z,99.99
2017-05-09T06:03:23.274Z,99.99
2017-05-09T06:04:03.704Z,99.99
2017-05-09T06:04:44.243Z,99.99
2017-05-09T06:05:25.684Z,99.99
2017-05-09T06:06:06.108Z,99.99
2017-05-09T06:06:46.526Z,99.99
2017-05-09T06:07:26.937Z,99.99
2017-05-09T06:08:07.368Z,99.99
2017-05-09T06:08:47.763Z,99.99
2017-05-09T06:09:28.169Z,99.99
2017-05-09T06:10:08.592Z,99.99
2017-05-09T06:10:48.992Z,99.99
2017-05-09T06:11:29.388Z,99.99
2017-05-09T06:12:09.839Z,99.99
2017-05-09T06:12:50.273Z,99.99
2017-05-09T06:13:30.705Z,99.99
2017-05-09T06:14:11.152Z,99.99
2017-05-09T06:14:51.558Z,99.99
2017-05-09T06:15:31.950Z,99.99
2017-05-09T06:16:12.355Z,99.99
2017-05-09T06:16:52.763Z,99.99
2017-05-09T06:17:33.182Z,99.99
2017-05-09T06:18:13.640Z,99.99
2017-05-09T06:18:54.068Z,99.99
2017-05-09T06:19:34.477Z,99.99
2017-05-09T06:20:14.895Z,99.99
2017-05-09T06:20:55.284Z,99.99
2017-05-09T06:21:35.718Z,99.99
2017-05-09T06:22:16.115Z,99.99
2017-05-09T06:22:56.532Z,99.99
2017-05-09T06:23:36.939Z,99.99
2017-05-09T06:24:17.361Z,99.99
2017-05-09T06:24:57.770Z,99.99
2017-05-09T06:25:38.165Z,99.99
2017-05-09T06:26:18.610Z,99.99
2017-05-09T06:28:31.654Z,99.99
2017-05-09T06:29:12.071Z,99.99
2017-05-09T06:29:52.495Z,99.99
2017-05-09T06:30:32.956Z,99.99
2017-05-09T06:31:13.397Z,99.99
2017-05-09T06:31:53.809Z,99.99
2017-05-09T06:32:34.205Z,99.99
2017-05-09T06:33:14.637Z,99.99
2017-05-09T06:33:55.122Z,99.99
2017-05-09T06:34:35.509Z,99.99
2017-05-09T06:35:15.917Z,99.99
2017-05-09T06:35:56.356Z,99.99
2017-05-09T06:36:36.766Z,99.99
2017-05-09T06:37:17.176Z,99.99
2017-05-09T06:37:57.575Z,99.99
2017-05-09T06:38:38.009Z,99.99
2017-05-09T06:39:18.460Z,99.99
2017-05-09T06:39:58.849Z,99.99
2017-05-09T06:41:46.414Z,99.99
2017-05-09T06:42:26.833Z,99.99
2017-05-09T06:43:07.281Z,99.99
2017-05-09T06:43:47.726Z,99.99
2017-05-09T06:44:28.091Z,99.99
2017-05-09T06:45:08.513Z,99.99
2017-05-09T06:45:48.853Z,99.99
2017-05-09T06:46:29.296Z,99.99
2017-05-09T06:47:09.711Z,99.99
2017-05-09T06:47:50.107Z,99.99
2017-05-09T06:48:30.606Z,99.99
2017-05-09T06:49:11.054Z,99.99
2017-05-09T06:49:51.474Z,99.99
2017-05-09T06:50:31.911Z,99.99
2017-05-09T06:51:12.332Z,99.99
2017-05-09T06:51:52.720Z,99.99
2017-05-09T06:52:33.145Z,99.99
2017-05-09T06:53:13.540Z,99.99
2017-05-09T06:53:53.993Z,99.99
2017-05-09T06:54:34.377Z,99.99
2017-05-09T06:55:14.784Z,99.99
2017-05-09T06:55:55.256Z,99.99
2017-05-09T06:56:35.684Z,99.99
2017-05-09T06:57:16.119Z,99.99
2017-05-09T06:57:56.564Z,99.99
2017-05-09T06:58:37.000Z,99.99
2017-05-09T06:59:17.400Z,99.99
2017-05-09T06:59:57.828Z,99.99
2017-05-09T07:00:38.261Z,99.99
2017-05-09T07:01:18.650Z,99.99
2017-05-09T07:01:59.104Z,99.99
2017-05-09T07:02:39.579Z,99.99
2017-05-09T07:03:19.964Z,99.99
2017-05-09T07:04:00.405Z,99.99
2017-05-09T07:04:40.889Z,99.99
2017-05-09T07:05:21.252Z,99.99
2017-05-09T07:06:01.695Z,99.99
2017-05-09T07:06:42.161Z,99.99
2017-05-09T07:07:22.594Z,99.99
2017-05-09T07:08:03.024Z,99.99
2017-05-09T07:08:43.458Z,99.99
2017-05-09T07:09:23.862Z,99.99
2017-05-09T07:10:04.320Z,99.99
2017-05-09T07:10:44.687Z,99.99
2017-05-09T07:11:25.132Z,99.99
2017-05-09T07:12:05.585Z,99.99
2017-05-09T07:12:46.022Z,99.99
2017-05-09T07:13:26.487Z,99.99
2017-05-09T07:14:06.916Z,99.99
2017-05-09T07:15:54.489Z,99.99
2017-05-09T07:16:34.893Z,99.99
2017-05-09T07:17:15.329Z,99.99
2017-05-09T07:17:55.777Z,99.99
2017-05-09T07:18:37.138Z,99.99
2017-05-09T07:19:17.541Z,99.99
2017-05-09T07:21:30.588Z,99.99
2017-05-09T07:22:11.017Z,99.99
2017-05-09T07:22:51.470Z,99.99
2017-05-09T07:23:31.926Z,99.99
2017-05-09T07:24:12.379Z,99.99
2017-05-09T07:24:52.792Z,99.99
2017-05-09T07:25:33.220Z,99.99
2017-05-09T07:26:13.662Z,99.99
2017-05-09T07:26:54.117Z,99.99
2017-05-09T07:27:34.493Z,99.99
2017-05-09T07:28:15.723Z,99.99
2017-05-09T07:30:09.141Z,99.99
2017-05-09T07:30:49.585Z,99.99
2017-05-09T07:31:30.019Z,99.99
2017-05-09T07:32:10.447Z,99.99
2017-05-09T07:32:50.886Z,99.99
2017-05-09T07:33:31.294Z,99.99
2017-05-09T07:34:11.694Z,99.99
2017-05-09T07:34:52.119Z,99.99
2017-05-09T07:35:32.523Z,99.99
2017-05-09T07:36:12.950Z,99.99
2017-05-09T07:38:25.890Z,99.99
2017-05-09T07:39:06.310Z,99.99
2017-05-09T07:39:46.759Z,99.99
2017-05-09T07:42:04.607Z,99.99
2017-05-09T07:42:45.017Z,99.99
2017-05-09T07:43:25.456Z,99.99
2017-05-09T07:44:05.895Z,99.99
2017-05-09T07:44:46.320Z,99.99
2017-05-09T07:45:26.801Z,99.99
2017-05-09T07:46:07.152Z,99.99
2017-05-09T07:46:47.586Z,99.98
2017-05-09T07:47:28.004Z,99.99
2017-05-09T07:48:08.411Z,99.99
2017-05-09T07:48:48.837Z,99.99
2017-05-09T07:51:06.820Z,99.99
2017-05-09T07:51:48.090Z,99.99
2017-05-09T07:52:29.198Z,99.99
2017-05-09T07:53:09.690Z,99.99
2017-05-09T07:53:50.103Z,99.99
2017-05-09T07:54:30.518Z,99.99
2017-05-09T07:55:10.918Z,99.99
2017-05-09T07:55:51.386Z,99.99
2017-05-09T07:56:31.861Z,99.99
2017-05-09T07:57:12.294Z,99.99
2017-05-09T07:57:52.734Z,99.99
2017-05-09T07:58:33.177Z,99.99
2017-05-09T07:59:13.591Z,99.99
2017-05-09T07:59:54.088Z,99.99
2017-05-09T08:00:34.578Z,99.99
2017-05-09T08:01:14.946Z,99.99
2017-05-09T08:01:55.385Z,99.99
2017-05-09T08:02:35.809Z,99.99
2017-05-09T08:03:16.253Z,99.99
2017-05-09T08:05:14.078Z,99.99
2017-05-09T08:05:54.529Z,99.99
2017-05-09T08:06:34.974Z,99.99
2017-05-09T08:07:15.437Z,99.6
2017-05-09T08:09:28.423Z,94.99
2017-05-09T08:10:08.868Z,94.6
2017-05-09T08:10:49.322Z,94.03
2017-05-09T08:11:29.766Z,92.29
2017-05-09T08:12:10.196Z,93.17
2017-05-09T08:12:50.698Z,94.53
2017-05-09T08:13:31.118Z,95.98
2017-05-09T08:14:11.492Z,95.64
2017-05-09T08:14:51.913Z,97.04
2017-05-09T08:16:39.783Z,98.87
2017-05-09T08:17:20.226Z,99.49
2017-05-09T08:18:00.641Z,99.3
2017-05-09T08:18:41.084Z,99.99
2017-05-09T08:19:21.520Z,99.99
2017-05-09T08:20:01.966Z,99.99
2017-05-09T08:20:42.403Z,99.99
2017-05-09T08:21:22.799Z,99.99
2017-05-09T08:22:03.266Z,99.99
2017-05-09T08:22:43.672Z,99.99
2017-05-09T08:23:24.122Z,99.99
2017-05-09T08:24:04.552Z,99.99
2017-05-09T08:24:44.989Z,99.99
2017-05-09T08:25:25.430Z,99.99
2017-05-09T08:27:18.094Z,99.99
2017-05-09T08:27:58.554Z,99.99
2017-05-09T08:28:38.997Z,99.99
2017-05-09T08:29:19.454Z,99.99
2017-05-09T08:29:59.891Z,99.99
2017-05-09T08:30:40.325Z,99.99
2017-05-09T08:31:20.774Z,99.99
2017-05-09T08:32:01.239Z,99.99
2017-05-09T08:32:41.667Z,99.99
2017-05-09T08:34:39.551Z,97.76
2017-05-09T08:35:20.008Z,97.28
2017-05-09T08:36:00.440Z,96.75
2017-05-09T08:36:40.879Z,96.84
2017-05-09T08:37:21.316Z,97.14
2017-05-09T08:39:19.082Z,99.99
2017-05-09T08:39:59.526Z,99.99
2017-05-09T08:40:39.975Z,99.99
2017-05-09T08:41:20.369Z,99.99
2017-05-09T08:42:00.775Z,99.99
2017-05-09T08:42:41.222Z,99.99
2017-05-09T08:43:21.661Z,99.99
2017-05-09T08:44:02.127Z,99.99
2017-05-09T08:44:42.574Z,99.99
2017-05-09T08:45:23.033Z,99.99
2017-05-09T08:46:03.506Z,99.99
2017-05-09T08:46:43.919Z,99.95
2017-05-09T08:47:24.361Z,98.29
2017-05-09T08:49:11.982Z,94.2
2017-05-09T08:50:59.506Z,95.26
2017-05-09T08:51:39.959Z,94.58
2017-05-09T08:52:20.406Z,93.51
2017-05-09T08:53:00.896Z,93.36
2017-05-09T08:53:41.305Z,93.85
2017-05-09T08:54:21.725Z,93.16
2017-05-09T08:55:02.142Z,93.4
2017-05-09T08:55:42.596Z,93.74
2017-05-09T08:56:23.083Z,93.4
2017-05-09T08:57:03.540Z,93.4
2017-05-09T08:57:43.991Z,93.05
2017-05-09T08:58:24.435Z,90.95
2017-05-09T08:59:04.899Z,90.07
2017-05-09T08:59:45.341Z,88.96
2017-05-09T09:00:25.787Z,88.87
2017-05-09T09:01:06.236Z,89.47
2017-05-09T09:01:46.668Z,89.53
2017-05-09T09:02:27.069Z,90.52
2017-05-09T09:03:07.506Z,90.33
2017-05-09T09:03:47.976Z,91.99
2017-05-09T09:04:28.405Z,93.45
2017-05-09T09:05:08.838Z,94.32
2017-05-09T09:05:49.250Z,95.54
2017-05-09T09:06:29.679Z,96.17
2017-05-09T09:07:10.104Z,96.89
2017-05-09T09:07:50.552Z,98.3
2017-05-09T09:08:31.001Z,97.91
2017-05-09T09:09:11.427Z,98.54
2017-05-09T09:09:51.873Z,97.72
2017-05-09T09:10:32.289Z,97.67
2017-05-09T09:11:12.696Z,97.91
2017-05-09T09:11:53.129Z,98.15
2017-05-09T09:12:33.551Z,98.77
2017-05-09T09:13:13.983Z,98.72
2017-05-09T09:13:54.399Z,99.54
2017-05-09T09:14:34.854Z,99.78
2017-05-09T09:15:15.315Z,99.99
2017-05-09T09:15:55.757Z,99.99
2017-05-09T09:16:36.192Z,99.99
2017-05-09T09:17:16.597Z,99.99
2017-05-09T09:17:57.023Z,99.99
2017-05-09T09:18:37.431Z,99.99
2017-05-09T09:19:17.890Z,99.99
2017-05-09T09:19:58.361Z,99.99
2017-05-09T09:20:38.780Z,99.99
2017-05-09T09:21:19.237Z,99.99
2017-05-09T09:23:17.019Z,99.99
2017-05-09T09:23:59.014Z,99.99
2017-05-09T09:24:39.458Z,99.99
2017-05-09T09:25:19.938Z,99.99
2017-05-09T09:26:00.386Z,99.99
2017-05-09T09:26:40.805Z,99.99
2017-05-09T09:27:21.289Z,99.99
2017-05-09T09:28:01.696Z,99.99
2017-05-09T09:28:42.143Z,99.99
2017-05-09T09:29:22.555Z,99.99
2017-05-09T09:30:03.036Z,99.99
2017-05-09T09:30:43.449Z,99.99
2017-05-09T09:31:23.903Z,99.99
2017-05-09T09:32:04.296Z,99.99
2017-05-09T09:32:44.726Z,97.56
2017-05-09T09:33:25.133Z,95.02
2017-05-09T09:34:05.606Z,94.23